sensor_id;sensor_type;location;lat;lon;timestamp;P1;durP1;ratioP1;P2;durP2;ratioP2
69970;SDS011;57301;50.328;8.542;2022-12-07T00:01:10;27.20;;;12.52;;
69970;SDS011;57301;50.328;8.542;2022-12-07T00:03:39;27.45;;;13.25;;
69970;SDS011;57301;50.328;8.542;2022-12-07T00:06:07;24.77;;;12.43;;
69970;SDS011;57301;50.328;8.542;2022-12-07T00:08:35;22.30;;;12.25;;
69970;SDS011;57301;50.328;8.542;2022-12-07T00:11:05;24.30;;;12.23;;
69970;SDS011;57301;50.328;8.542;2022-12-07T00:13:33;25.98;;;12.13;;
69970;SDS011;57301;50.328;8.542;2022-12-07T00:16:02;26.05;;;12.65;;
69970;SDS011;57301;50.328;8.542;2022-12-07T00:18:33;22.50;;;11.30;;
69970;SDS011;57301;50.328;8.542;2022-12-07T00:21:00;25.70;;;11.75;;
69970;SDS011;57301;50.328;8.542;2022-12-07T00:23:31;24.30;;;12.50;;
69970;SDS011;57301;50.328;8.542;2022-12-07T00:26:10;24.05;;;11.23;;
69970;SDS011;57301;50.328;8.542;2022-12-07T00:28:38;22.20;;;10.95;;
69970;SDS011;57301;50.328;8.542;2022-12-07T00:31:06;24.35;;;11.30;;
69970;SDS011;57301;50.328;8.542;2022-12-07T00:33:35;22.92;;;11.45;;
69970;SDS011;57301;50.328;8.542;2022-12-07T00:36:03;21.63;;;10.80;;
69970;SDS011;57301;50.328;8.542;2022-12-07T00:38:36;23.17;;;11.88;;
69970;SDS011;57301;50.328;8.542;2022-12-07T00:41:11;22.30;;;10.88;;
69970;SDS011;57301;50.328;8.542;2022-12-07T00:43:39;23.55;;;11.13;;
69970;SDS011;57301;50.328;8.542;2022-12-07T00:46:07;21.77;;;11.32;;
69970;SDS011;57301;50.328;8.542;2022-12-07T00:48:34;23.97;;;11.13;;
69970;SDS011;57301;50.328;8.542;2022-12-07T00:51:03;21.88;;;10.93;;
69970;SDS011;57301;50.328;8.542;2022-12-07T00:53:31;22.33;;;10.75;;
69970;SDS011;57301;50.328;8.542;2022-12-07T00:56:11;18.58;;;9.32;;
69970;SDS011;57301;50.328;8.542;2022-12-07T00:58:39;19.88;;;9.82;;
69970;SDS011;57301;50.328;8.542;2022-12-07T01:01:06;20.43;;;9.20;;
69970;SDS011;57301;50.328;8.542;2022-12-07T01:03:35;23.65;;;11.77;;
69970;SDS011;57301;50.328;8.542;2022-12-07T01:06:02;19.38;;;10.00;;
69970;SDS011;57301;50.328;8.542;2022-12-07T01:08:29;19.60;;;9.48;;
69970;SDS011;57301;50.328;8.542;2022-12-07T01:11:03;19.02;;;9.73;;
69970;SDS011;57301;50.328;8.542;2022-12-07T01:13:33;19.83;;;10.23;;
69970;SDS011;57301;50.328;8.542;2022-12-07T01:16:01;18.33;;;9.73;;
69970;SDS011;57301;50.328;8.542;2022-12-07T01:18:30;20.88;;;10.95;;
69970;SDS011;57301;50.328;8.542;2022-12-07T01:21:02;21.45;;;10.70;;
69970;SDS011;57301;50.328;8.542;2022-12-07T01:23:29;18.80;;;9.50;;
69970;SDS011;57301;50.328;8.542;2022-12-07T01:25:57;16.07;;;7.53;;
69970;SDS011;57301;50.328;8.542;2022-12-07T01:28:24;15.38;;;7.90;;
69970;SDS011;57301;50.328;8.542;2022-12-07T01:31:02;14.82;;;8.15;;
69970;SDS011;57301;50.328;8.542;2022-12-07T01:33:35;18.77;;;8.10;;
69970;SDS011;57301;50.328;8.542;2022-12-07T01:36:13;15.85;;;7.60;;
69970;SDS011;57301;50.328;8.542;2022-12-07T01:38:41;14.87;;;7.40;;
69970;SDS011;57301;50.328;8.542;2022-12-07T01:41:09;16.45;;;7.88;;
69970;SDS011;57301;50.328;8.542;2022-12-07T01:43:35;15.55;;;7.50;;
69970;SDS011;57301;50.328;8.542;2022-12-07T01:46:03;15.05;;;7.22;;
69970;SDS011;57301;50.328;8.542;2022-12-07T01:48:34;15.57;;;7.78;;
69970;SDS011;57301;50.328;8.542;2022-12-07T01:51:08;14.87;;;7.53;;
69970;SDS011;57301;50.328;8.542;2022-12-07T01:53:39;13.65;;;7.10;;
69970;SDS011;57301;50.328;8.542;2022-12-07T01:56:10;13.20;;;7.45;;
69970;SDS011;57301;50.328;8.542;2022-12-07T01:58:43;12.52;;;6.65;;
69970;SDS011;57301;50.328;8.542;2022-12-07T02:01:11;13.68;;;6.60;;
69970;SDS011;57301;50.328;8.542;2022-12-07T02:03:39;12.53;;;6.50;;
69970;SDS011;57301;50.328;8.542;2022-12-07T02:06:07;13.90;;;6.85;;
69970;SDS011;57301;50.328;8.542;2022-12-07T02:08:36;11.65;;;6.18;;
69970;SDS011;57301;50.328;8.542;2022-12-07T02:11:03;12.10;;;6.20;;
69970;SDS011;57301;50.328;8.542;2022-12-07T02:13:32;10.88;;;5.82;;
69970;SDS011;57301;50.328;8.542;2022-12-07T02:18:48;9.27;;;5.65;;
69970;SDS011;57301;50.328;8.542;2022-12-07T02:24:10;9.93;;;5.55;;
69970;SDS011;57301;50.328;8.542;2022-12-07T02:30:17;9.77;;;5.40;;
69970;SDS011;57301;50.328;8.542;2022-12-07T02:35:06;11.65;;;5.82;;
69970;SDS011;57301;50.328;8.542;2022-12-07T02:40:20;11.55;;;6.13;;
69970;SDS011;57301;50.328;8.542;2022-12-07T02:42:56;11.20;;;5.97;;
69970;SDS011;57301;50.328;8.542;2022-12-07T02:45:27;12.23;;;7.03;;
69970;SDS011;57301;50.328;8.542;2022-12-07T02:47:58;11.30;;;6.30;;
69970;SDS011;57301;50.328;8.542;2022-12-07T02:50:26;12.20;;;6.18;;
69970;SDS011;57301;50.328;8.542;2022-12-07T02:52:53;12.18;;;6.50;;
69970;SDS011;57301;50.328;8.542;2022-12-07T02:55:30;11.67;;;6.43;;
69970;SDS011;57301;50.328;8.542;2022-12-07T02:58:17;11.20;;;6.75;;
69970;SDS011;57301;50.328;8.542;2022-12-07T03:01:30;12.57;;;7.00;;
69970;SDS011;57301;50.328;8.542;2022-12-07T03:04:09;13.93;;;7.28;;
69970;SDS011;57301;50.328;8.542;2022-12-07T03:06:56;12.80;;;6.65;;
69970;SDS011;57301;50.328;8.542;2022-12-07T03:09:32;13.53;;;6.60;;
69970;SDS011;57301;50.328;8.542;2022-12-07T03:12:09;13.80;;;7.10;;
69970;SDS011;57301;50.328;8.542;2022-12-07T03:14:55;13.40;;;7.47;;
69970;SDS011;57301;50.328;8.542;2022-12-07T03:17:27;14.65;;;7.28;;
69970;SDS011;57301;50.328;8.542;2022-12-07T03:20:00;13.57;;;7.22;;
69970;SDS011;57301;50.328;8.542;2022-12-07T03:22:31;12.73;;;7.20;;
69970;SDS011;57301;50.328;8.542;2022-12-07T03:25:01;13.63;;;7.53;;
69970;SDS011;57301;50.328;8.542;2022-12-07T03:27:33;16.45;;;8.45;;
69970;SDS011;57301;50.328;8.542;2022-12-07T03:30:10;15.30;;;8.10;;
69970;SDS011;57301;50.328;8.542;2022-12-07T03:32:52;12.60;;;6.82;;
69970;SDS011;57301;50.328;8.542;2022-12-07T03:35:26;14.03;;;6.83;;
69970;SDS011;57301;50.328;8.542;2022-12-07T03:37:59;14.60;;;7.35;;
69970;SDS011;57301;50.328;8.542;2022-12-07T03:40:35;15.48;;;7.70;;
69970;SDS011;57301;50.328;8.542;2022-12-07T03:43:06;17.23;;;9.82;;
69970;SDS011;57301;50.328;8.542;2022-12-07T03:45:40;14.38;;;7.97;;
69970;SDS011;57301;50.328;8.542;2022-12-07T03:48:16;17.80;;;9.47;;
69970;SDS011;57301;50.328;8.542;2022-12-07T03:50:53;22.38;;;11.75;;
69970;SDS011;57301;50.328;8.542;2022-12-07T03:53:33;15.77;;;8.35;;
69970;SDS011;57301;50.328;8.542;2022-12-07T03:56:03;14.43;;;8.10;;
69970;SDS011;57301;50.328;8.542;2022-12-07T03:58:30;19.75;;;9.95;;
69970;SDS011;57301;50.328;8.542;2022-12-07T04:00:58;15.80;;;7.87;;
69970;SDS011;57301;50.328;8.542;2022-12-07T04:03:24;16.63;;;7.93;;
69970;SDS011;57301;50.328;8.542;2022-12-07T04:05:51;14.82;;;7.93;;
69970;SDS011;57301;50.328;8.542;2022-12-07T04:08:18;15.73;;;8.70;;
69970;SDS011;57301;50.328;8.542;2022-12-07T04:10:44;17.08;;;9.23;;
69970;SDS011;57301;50.328;8.542;2022-12-07T04:13:11;17.40;;;9.37;;
69970;SDS011;57301;50.328;8.542;2022-12-07T04:15:37;18.42;;;9.23;;
69970;SDS011;57301;50.328;8.542;2022-12-07T04:18:04;18.20;;;9.00;;
69970;SDS011;57301;50.328;8.542;2022-12-07T04:20:30;17.52;;;9.68;;
69970;SDS011;57301;50.328;8.542;2022-12-07T04:22:57;17.92;;;8.93;;
69970;SDS011;57301;50.328;8.542;2022-12-07T04:25:23;18.97;;;9.77;;
69970;SDS011;57301;50.328;8.542;2022-12-07T04:27:50;18.52;;;9.02;;
69970;SDS011;57301;50.328;8.542;2022-12-07T04:30:16;14.80;;;8.68;;
69970;SDS011;57301;50.328;8.542;2022-12-07T04:32:43;16.38;;;8.90;;
69970;SDS011;57301;50.328;8.542;2022-12-07T04:35:09;19.55;;;9.15;;
69970;SDS011;57301;50.328;8.542;2022-12-07T04:37:36;16.53;;;8.83;;
69970;SDS011;57301;50.328;8.542;2022-12-07T04:40:06;16.00;;;8.95;;
69970;SDS011;57301;50.328;8.542;2022-12-07T04:42:37;14.93;;;8.15;;
69970;SDS011;57301;50.328;8.542;2022-12-07T04:45:04;16.17;;;8.77;;
69970;SDS011;57301;50.328;8.542;2022-12-07T04:47:31;16.65;;;7.93;;
69970;SDS011;57301;50.328;8.542;2022-12-07T04:49:57;14.83;;;8.03;;
69970;SDS011;57301;50.328;8.542;2022-12-07T04:52:24;18.02;;;8.55;;
69970;SDS011;57301;50.328;8.542;2022-12-07T04:54:50;19.33;;;10.02;;
69970;SDS011;57301;50.328;8.542;2022-12-07T04:57:17;17.10;;;8.90;;
69970;SDS011;57301;50.328;8.542;2022-12-07T04:59:43;18.50;;;8.30;;
69970;SDS011;57301;50.328;8.542;2022-12-07T05:02:11;17.47;;;8.97;;
69970;SDS011;57301;50.328;8.542;2022-12-07T05:04:37;18.83;;;10.15;;
69970;SDS011;57301;50.328;8.542;2022-12-07T05:07:04;17.90;;;9.25;;
69970;SDS011;57301;50.328;8.542;2022-12-07T05:09:30;17.65;;;9.55;;
69970;SDS011;57301;50.328;8.542;2022-12-07T05:11:57;17.67;;;9.43;;
69970;SDS011;57301;50.328;8.542;2022-12-07T05:14:23;18.03;;;9.47;;
69970;SDS011;57301;50.328;8.542;2022-12-07T05:16:50;17.75;;;8.88;;
69970;SDS011;57301;50.328;8.542;2022-12-07T05:19:17;20.60;;;10.77;;
69970;SDS011;57301;50.328;8.542;2022-12-07T05:21:45;26.90;;;12.40;;
69970;SDS011;57301;50.328;8.542;2022-12-07T05:24:13;22.02;;;11.25;;
69970;SDS011;57301;50.328;8.542;2022-12-07T05:26:41;20.40;;;10.07;;
69970;SDS011;57301;50.328;8.542;2022-12-07T05:29:10;19.50;;;10.07;;
69970;SDS011;57301;50.328;8.542;2022-12-07T05:31:38;19.35;;;10.50;;
69970;SDS011;57301;50.328;8.542;2022-12-07T05:34:05;24.20;;;10.10;;
69970;SDS011;57301;50.328;8.542;2022-12-07T05:36:31;22.27;;;9.95;;
69970;SDS011;57301;50.328;8.542;2022-12-07T05:38:58;20.53;;;10.80;;
69970;SDS011;57301;50.328;8.542;2022-12-07T05:41:25;18.77;;;9.65;;
69970;SDS011;57301;50.328;8.542;2022-12-07T05:44:10;20.75;;;11.27;;
69970;SDS011;57301;50.328;8.542;2022-12-07T05:46:37;24.23;;;11.88;;
69970;SDS011;57301;50.328;8.542;2022-12-07T05:49:03;22.83;;;10.73;;
69970;SDS011;57301;50.328;8.542;2022-12-07T05:51:30;20.60;;;10.20;;
69970;SDS011;57301;50.328;8.542;2022-12-07T05:53:56;19.33;;;9.73;;
69970;SDS011;57301;50.328;8.542;2022-12-07T05:56:23;19.23;;;10.43;;
69970;SDS011;57301;50.328;8.542;2022-12-07T05:58:50;23.20;;;10.70;;
69970;SDS011;57301;50.328;8.542;2022-12-07T06:01:35;18.20;;;10.38;;
69970;SDS011;57301;50.328;8.542;2022-12-07T06:04:02;19.33;;;10.50;;
69970;SDS011;57301;50.328;8.542;2022-12-07T06:06:28;22.40;;;10.68;;
69970;SDS011;57301;50.328;8.542;2022-12-07T06:08:55;16.88;;;9.60;;
69970;SDS011;57301;50.328;8.542;2022-12-07T06:11:21;17.13;;;9.05;;
69970;SDS011;57301;50.328;8.542;2022-12-07T06:14:06;18.13;;;9.43;;
69970;SDS011;57301;50.328;8.542;2022-12-07T06:16:33;24.33;;;12.90;;
69970;SDS011;57301;50.328;8.542;2022-12-07T06:19:00;22.90;;;10.77;;
69970;SDS011;57301;50.328;8.542;2022-12-07T06:21:26;19.38;;;9.70;;
69970;SDS011;57301;50.328;8.542;2022-12-07T06:23:53;17.55;;;9.32;;
69970;SDS011;57301;50.328;8.542;2022-12-07T06:26:20;21.30;;;8.98;;
69970;SDS011;57301;50.328;8.542;2022-12-07T06:28:47;14.77;;;8.60;;
69970;SDS011;57301;50.328;8.542;2022-12-07T06:31:14;15.48;;;8.50;;
69970;SDS011;57301;50.328;8.542;2022-12-07T06:33:40;16.08;;;8.88;;
69970;SDS011;57301;50.328;8.542;2022-12-07T06:36:08;14.88;;;8.02;;
69970;SDS011;57301;50.328;8.542;2022-12-07T06:38:35;15.98;;;8.27;;
69970;SDS011;57301;50.328;8.542;2022-12-07T06:41:02;15.67;;;8.70;;
69970;SDS011;57301;50.328;8.542;2022-12-07T06:43:29;15.48;;;9.00;;
69970;SDS011;57301;50.328;8.542;2022-12-07T06:45:56;15.90;;;9.35;;
69970;SDS011;57301;50.328;8.542;2022-12-07T06:48:22;18.55;;;9.68;;
69970;SDS011;57301;50.328;8.542;2022-12-07T06:50:49;20.40;;;10.35;;
69970;SDS011;57301;50.328;8.542;2022-12-07T06:53:20;17.80;;;10.23;;
69970;SDS011;57301;50.328;8.542;2022-12-07T06:55:47;17.73;;;10.18;;
69970;SDS011;57301;50.328;8.542;2022-12-07T06:58:13;20.02;;;10.20;;
69970;SDS011;57301;50.328;8.542;2022-12-07T07:00:40;17.58;;;9.85;;
69970;SDS011;57301;50.328;8.542;2022-12-07T07:03:07;18.17;;;10.10;;
69970;SDS011;57301;50.328;8.542;2022-12-07T07:05:33;18.97;;;9.20;;
69970;SDS011;57301;50.328;8.542;2022-12-07T07:08:00;16.85;;;8.75;;
69970;SDS011;57301;50.328;8.542;2022-12-07T07:10:47;21.80;;;11.65;;
69970;SDS011;57301;50.328;8.542;2022-12-07T07:13:13;15.63;;;8.55;;
69970;SDS011;57301;50.328;8.542;2022-12-07T07:15:40;18.77;;;9.40;;
69970;SDS011;57301;50.328;8.542;2022-12-07T07:18:06;17.17;;;9.63;;
69970;SDS011;57301;50.328;8.542;2022-12-07T07:20:33;17.70;;;10.23;;
69970;SDS011;57301;50.328;8.542;2022-12-07T07:23:00;16.98;;;9.13;;
69970;SDS011;57301;50.328;8.542;2022-12-07T07:25:27;16.98;;;8.23;;
69970;SDS011;57301;50.328;8.542;2022-12-07T07:27:53;16.35;;;8.80;;
69970;SDS011;57301;50.328;8.542;2022-12-07T07:30:20;15.87;;;8.20;;
69970;SDS011;57301;50.328;8.542;2022-12-07T07:32:46;17.33;;;8.60;;
69970;SDS011;57301;50.328;8.542;2022-12-07T07:35:13;15.77;;;8.57;;
69970;SDS011;57301;50.328;8.542;2022-12-07T07:37:40;17.02;;;9.35;;
69970;SDS011;57301;50.328;8.542;2022-12-07T07:40:07;15.80;;;8.55;;
69970;SDS011;57301;50.328;8.542;2022-12-07T07:42:37;15.03;;;8.60;;
69970;SDS011;57301;50.328;8.542;2022-12-07T07:45:04;13.45;;;7.93;;
69970;SDS011;57301;50.328;8.542;2022-12-07T07:47:31;16.90;;;9.52;;
69970;SDS011;57301;50.328;8.542;2022-12-07T07:49:58;16.17;;;8.38;;
69970;SDS011;57301;50.328;8.542;2022-12-07T07:52:24;15.98;;;8.15;;
69970;SDS011;57301;50.328;8.542;2022-12-07T07:54:51;15.30;;;8.40;;
69970;SDS011;57301;50.328;8.542;2022-12-07T07:57:17;17.13;;;8.20;;
69970;SDS011;57301;50.328;8.542;2022-12-07T07:59:44;14.35;;;8.35;;
69970;SDS011;57301;50.328;8.542;2022-12-07T08:02:14;16.05;;;8.70;;
69970;SDS011;57301;50.328;8.542;2022-12-07T08:04:43;16.42;;;8.95;;
69970;SDS011;57301;50.328;8.542;2022-12-07T08:07:11;17.30;;;8.23;;
69970;SDS011;57301;50.328;8.542;2022-12-07T08:09:39;13.75;;;8.38;;
69970;SDS011;57301;50.328;8.542;2022-12-07T08:12:06;14.93;;;8.32;;
69970;SDS011;57301;50.328;8.542;2022-12-07T08:14:33;14.73;;;8.32;;
69970;SDS011;57301;50.328;8.542;2022-12-07T08:17:00;10.63;;;6.82;;
69970;SDS011;57301;50.328;8.542;2022-12-07T08:19:27;12.57;;;7.23;;
69970;SDS011;57301;50.328;8.542;2022-12-07T08:21:56;11.98;;;6.75;;
69970;SDS011;57301;50.328;8.542;2022-12-07T08:24:33;13.43;;;6.93;;
69970;SDS011;57301;50.328;8.542;2022-12-07T08:27:01;13.73;;;6.70;;
69970;SDS011;57301;50.328;8.542;2022-12-07T08:29:31;12.30;;;6.15;;
69970;SDS011;57301;50.328;8.542;2022-12-07T08:31:58;10.17;;;6.03;;
69970;SDS011;57301;50.328;8.542;2022-12-07T08:34:33;9.85;;;5.60;;
69970;SDS011;57301;50.328;8.542;2022-12-07T08:37:00;10.85;;;6.22;;
69970;SDS011;57301;50.328;8.542;2022-12-07T08:39:27;8.75;;;5.50;;
69970;SDS011;57301;50.328;8.542;2022-12-07T08:42:01;9.38;;;5.60;;
69970;SDS011;57301;50.328;8.542;2022-12-07T08:44:27;9.33;;;5.27;;
69970;SDS011;57301;50.328;8.542;2022-12-07T08:46:55;9.10;;;5.30;;
69970;SDS011;57301;50.328;8.542;2022-12-07T08:49:27;11.60;;;5.68;;
69970;SDS011;57301;50.328;8.542;2022-12-07T08:51:58;9.50;;;5.85;;
69970;SDS011;57301;50.328;8.542;2022-12-07T08:54:24;8.38;;;4.75;;
69970;SDS011;57301;50.328;8.542;2022-12-07T08:56:51;7.33;;;4.67;;
69970;SDS011;57301;50.328;8.542;2022-12-07T08:59:24;10.98;;;5.60;;
69970;SDS011;57301;50.328;8.542;2022-12-07T09:01:52;12.93;;;5.50;;
69970;SDS011;57301;50.328;8.542;2022-12-07T09:04:19;9.32;;;5.38;;
69970;SDS011;57301;50.328;8.542;2022-12-07T09:06:46;9.68;;;5.43;;
69970;SDS011;57301;50.328;8.542;2022-12-07T09:09:16;14.03;;;6.37;;
69970;SDS011;57301;50.328;8.542;2022-12-07T09:11:43;9.27;;;5.30;;
69970;SDS011;57301;50.328;8.542;2022-12-07T09:14:11;8.57;;;5.32;;
69970;SDS011;57301;50.328;8.542;2022-12-07T09:16:38;11.27;;;6.03;;
69970;SDS011;57301;50.328;8.542;2022-12-07T09:19:05;10.07;;;5.45;;
69970;SDS011;57301;50.328;8.542;2022-12-07T09:21:34;8.73;;;4.93;;
69970;SDS011;57301;50.328;8.542;2022-12-07T09:24:01;10.98;;;5.05;;
69970;SDS011;57301;50.328;8.542;2022-12-07T09:26:27;8.05;;;4.93;;
69970;SDS011;57301;50.328;8.542;2022-12-07T09:28:54;8.48;;;4.80;;
69970;SDS011;57301;50.328;8.542;2022-12-07T09:31:20;7.90;;;4.53;;
69970;SDS011;57301;50.328;8.542;2022-12-07T09:33:57;6.90;;;4.40;;
69970;SDS011;57301;50.328;8.542;2022-12-07T09:36:26;7.95;;;4.20;;
69970;SDS011;57301;50.328;8.542;2022-12-07T09:38:53;8.98;;;4.55;;
69970;SDS011;57301;50.328;8.542;2022-12-07T09:41:20;7.78;;;4.20;;
69970;SDS011;57301;50.328;8.542;2022-12-07T09:43:51;7.88;;;3.85;;
69970;SDS011;57301;50.328;8.542;2022-12-07T09:46:19;6.73;;;4.13;;
69970;SDS011;57301;50.328;8.542;2022-12-07T09:48:47;6.93;;;4.10;;
69970;SDS011;57301;50.328;8.542;2022-12-07T09:51:17;8.98;;;4.90;;
69970;SDS011;57301;50.328;8.542;2022-12-07T09:53:51;7.60;;;4.53;;
69970;SDS011;57301;50.328;8.542;2022-12-07T09:56:20;10.43;;;5.55;;
69970;SDS011;57301;50.328;8.542;2022-12-07T09:58:48;9.23;;;5.00;;
69970;SDS011;57301;50.328;8.542;2022-12-07T10:01:19;9.52;;;5.30;;
69970;SDS011;57301;50.328;8.542;2022-12-07T10:04:22;11.10;;;7.00;;
69970;SDS011;57301;50.328;8.542;2022-12-07T10:06:43;11.48;;;5.85;;
69970;SDS011;57301;50.328;8.542;2022-12-07T10:09:13;14.13;;;7.30;;
69970;SDS011;57301;50.328;8.542;2022-12-07T10:11:57;11.20;;;5.87;;
69970;SDS011;57301;50.328;8.542;2022-12-07T10:14:29;9.95;;;6.13;;
69970;SDS011;57301;50.328;8.542;2022-12-07T10:17:36;16.10;;;8.65;;
69970;SDS011;57301;50.328;8.542;2022-12-07T10:20:18;10.80;;;6.13;;
69970;SDS011;57301;50.328;8.542;2022-12-07T10:22:58;17.10;;;7.78;;
69970;SDS011;57301;50.328;8.542;2022-12-07T10:25:27;9.90;;;6.10;;
69970;SDS011;57301;50.328;8.542;2022-12-07T10:28:03;8.13;;;5.00;;
69970;SDS011;57301;50.328;8.542;2022-12-07T10:30:52;7.88;;;4.85;;
69970;SDS011;57301;50.328;8.542;2022-12-07T10:33:29;8.45;;;4.85;;
69970;SDS011;57301;50.328;8.542;2022-12-07T10:35:59;7.43;;;4.50;;
69970;SDS011;57301;50.328;8.542;2022-12-07T10:38:27;7.03;;;4.00;;
69970;SDS011;57301;50.328;8.542;2022-12-07T10:41:03;7.70;;;3.80;;
69970;SDS011;57301;50.328;8.542;2022-12-07T10:43:31;8.52;;;3.63;;
69970;SDS011;57301;50.328;8.542;2022-12-07T10:46:07;9.30;;;3.70;;
69970;SDS011;57301;50.328;8.542;2022-12-07T10:48:59;7.47;;;4.00;;
69970;SDS011;57301;50.328;8.542;2022-12-07T10:55:06;6.47;;;3.50;;
69970;SDS011;57301;50.328;8.542;2022-12-07T10:57:46;7.40;;;4.10;;
69970;SDS011;57301;50.328;8.542;2022-12-07T11:00:25;10.35;;;5.97;;
69970;SDS011;57301;50.328;8.542;2022-12-07T11:14:14;8.20;;;4.65;;
69970;SDS011;57301;50.328;8.542;2022-12-07T11:16:52;10.25;;;4.80;;
69970;SDS011;57301;50.328;8.542;2022-12-07T11:22:09;7.95;;;4.10;;
69970;SDS011;57301;50.328;8.542;2022-12-07T11:24:48;9.85;;;4.40;;
69970;SDS011;57301;50.328;8.542;2022-12-07T11:30:28;11.35;;;3.97;;
69970;SDS011;57301;50.328;8.542;2022-12-07T11:38:14;9.57;;;4.30;;
69970;SDS011;57301;50.328;8.542;2022-12-07T11:40:49;8.65;;;4.20;;
69970;SDS011;57301;50.328;8.542;2022-12-07T11:45:58;8.07;;;3.90;;
69970;SDS011;57301;50.328;8.542;2022-12-07T11:48:33;10.25;;;4.18;;
69970;SDS011;57301;50.328;8.542;2022-12-07T11:51:04;8.18;;;4.30;;
69970;SDS011;57301;50.328;8.542;2022-12-07T11:56:15;9.55;;;4.78;;
69970;SDS011;57301;50.328;8.542;2022-12-07T12:06:36;8.18;;;4.63;;
69970;SDS011;57301;50.328;8.542;2022-12-07T12:15:20;7.05;;;3.55;;
69970;SDS011;57301;50.328;8.542;2022-12-07T12:23:48;8.10;;;3.95;;
69970;SDS011;57301;50.328;8.542;2022-12-07T12:26:23;7.83;;;4.40;;
69970;SDS011;57301;50.328;8.542;2022-12-07T12:33:54;6.07;;;3.08;;
69970;SDS011;57301;50.328;8.542;2022-12-07T12:39:15;6.30;;;3.00;;
69970;SDS011;57301;50.328;8.542;2022-12-07T12:51:55;6.13;;;3.13;;
69970;SDS011;57301;50.328;8.542;2022-12-07T12:54:57;4.97;;;3.03;;
69970;SDS011;57301;50.328;8.542;2022-12-07T12:57:38;6.03;;;3.05;;
69970;SDS011;57301;50.328;8.542;2022-12-07T13:00:15;4.75;;;3.25;;
69970;SDS011;57301;50.328;8.542;2022-12-07T13:02:50;6.30;;;3.63;;
69970;SDS011;57301;50.328;8.542;2022-12-07T13:05:30;6.37;;;3.50;;
69970;SDS011;57301;50.328;8.542;2022-12-07T13:08:19;8.60;;;3.70;;
69970;SDS011;57301;50.328;8.542;2022-12-07T13:10:47;8.52;;;4.50;;
69970;SDS011;57301;50.328;8.542;2022-12-07T13:15:42;27.38;;;11.27;;
69970;SDS011;57301;50.328;8.542;2022-12-07T13:20:52;8.20;;;4.20;;
69970;SDS011;57301;50.328;8.542;2022-12-07T13:23:29;9.43;;;4.93;;
69970;SDS011;57301;50.328;8.542;2022-12-07T13:26:15;11.93;;;6.78;;
69970;SDS011;57301;50.328;8.542;2022-12-07T13:34:04;8.68;;;3.83;;
69970;SDS011;57301;50.328;8.542;2022-12-07T13:36:51;7.00;;;3.92;;
69970;SDS011;57301;50.328;8.542;2022-12-07T13:39:18;7.85;;;4.20;;
69970;SDS011;57301;50.328;8.542;2022-12-07T13:41:49;8.88;;;4.00;;
69970;SDS011;57301;50.328;8.542;2022-12-07T13:44:18;5.83;;;3.50;;
69970;SDS011;57301;50.328;8.542;2022-12-07T13:49:46;6.88;;;3.67;;
69970;SDS011;57301;50.328;8.542;2022-12-07T13:52:25;8.52;;;3.42;;
69970;SDS011;57301;50.328;8.542;2022-12-07T13:55:00;8.32;;;3.10;;
69970;SDS011;57301;50.328;8.542;2022-12-07T13:57:31;6.63;;;3.10;;
69970;SDS011;57301;50.328;8.542;2022-12-07T14:00:02;6.95;;;3.10;;
69970;SDS011;57301;50.328;8.542;2022-12-07T14:02:31;7.82;;;3.25;;
69970;SDS011;57301;50.328;8.542;2022-12-07T14:05:10;9.85;;;4.25;;
69970;SDS011;57301;50.328;8.542;2022-12-07T14:10:38;5.00;;;3.20;;
69970;SDS011;57301;50.328;8.542;2022-12-07T14:15:54;6.50;;;3.53;;
69970;SDS011;57301;50.328;8.542;2022-12-07T14:18:26;8.20;;;3.58;;
69970;SDS011;57301;50.328;8.542;2022-12-07T14:21:29;8.27;;;3.60;;
69970;SDS011;57301;50.328;8.542;2022-12-07T14:24:09;6.63;;;3.30;;
69970;SDS011;57301;50.328;8.542;2022-12-07T14:26:38;6.95;;;3.75;;
69970;SDS011;57301;50.328;8.542;2022-12-07T14:29:19;7.25;;;3.40;;
69970;SDS011;57301;50.328;8.542;2022-12-07T14:31:52;8.55;;;3.20;;
69970;SDS011;57301;50.328;8.542;2022-12-07T14:34:20;6.05;;;3.13;;
69970;SDS011;57301;50.328;8.542;2022-12-07T14:36:48;7.50;;;3.63;;
69970;SDS011;57301;50.328;8.542;2022-12-07T14:39:14;8.57;;;4.10;;
69970;SDS011;57301;50.328;8.542;2022-12-07T14:41:41;9.35;;;3.83;;
69970;SDS011;57301;50.328;8.542;2022-12-07T14:44:18;9.00;;;3.67;;
69970;SDS011;57301;50.328;8.542;2022-12-07T14:46:51;8.85;;;3.72;;
69970;SDS011;57301;50.328;8.542;2022-12-07T14:49:38;6.77;;;3.70;;
69970;SDS011;57301;50.328;8.542;2022-12-07T14:52:04;6.88;;;4.03;;
69970;SDS011;57301;50.328;8.542;2022-12-07T14:54:57;9.30;;;3.95;;
69970;SDS011;57301;50.328;8.542;2022-12-07T14:57:24;7.38;;;3.90;;
69970;SDS011;57301;50.328;8.542;2022-12-07T14:59:50;6.63;;;3.95;;
69970;SDS011;57301;50.328;8.542;2022-12-07T15:02:17;7.33;;;4.00;;
69970;SDS011;57301;50.328;8.542;2022-12-07T15:04:43;8.48;;;4.18;;
69970;SDS011;57301;50.328;8.542;2022-12-07T15:07:15;9.85;;;4.30;;
69970;SDS011;57301;50.328;8.542;2022-12-07T15:09:46;7.63;;;4.30;;
69970;SDS011;57301;50.328;8.542;2022-12-07T15:12:13;13.38;;;4.57;;
69970;SDS011;57301;50.328;8.542;2022-12-07T15:14:40;9.37;;;4.30;;
69970;SDS011;57301;50.328;8.542;2022-12-07T15:17:06;10.38;;;4.70;;
69970;SDS011;57301;50.328;8.542;2022-12-07T15:19:51;10.48;;;5.72;;
69970;SDS011;57301;50.328;8.542;2022-12-07T15:22:17;12.32;;;5.68;;
69970;SDS011;57301;50.328;8.542;2022-12-07T15:24:44;8.10;;;5.10;;
69970;SDS011;57301;50.328;8.542;2022-12-07T15:27:10;8.23;;;4.53;;
69970;SDS011;57301;50.328;8.542;2022-12-07T15:29:37;14.48;;;6.35;;
69970;SDS011;57301;50.328;8.542;2022-12-07T15:32:03;11.57;;;6.10;;
69970;SDS011;57301;50.328;8.542;2022-12-07T15:34:30;7.18;;;3.90;;
69970;SDS011;57301;50.328;8.542;2022-12-07T15:37:05;7.07;;;3.58;;
69970;SDS011;57301;50.328;8.542;2022-12-07T15:39:32;6.97;;;3.27;;
69970;SDS011;57301;50.328;8.542;2022-12-07T15:41:59;6.53;;;3.50;;
69970;SDS011;57301;50.328;8.542;2022-12-07T15:44:26;6.38;;;4.32;;
69970;SDS011;57301;50.328;8.542;2022-12-07T15:47:11;8.43;;;4.45;;
69970;SDS011;57301;50.328;8.542;2022-12-07T15:49:37;9.00;;;4.72;;
69970;SDS011;57301;50.328;8.542;2022-12-07T15:52:04;29.50;;;11.47;;
69970;SDS011;57301;50.328;8.542;2022-12-07T15:54:31;16.85;;;7.32;;
69970;SDS011;57301;50.328;8.542;2022-12-07T15:56:58;10.15;;;4.72;;
69970;SDS011;57301;50.328;8.542;2022-12-07T15:59:25;8.07;;;4.13;;
69970;SDS011;57301;50.328;8.542;2022-12-07T16:01:53;8.73;;;4.00;;
69970;SDS011;57301;50.328;8.542;2022-12-07T16:04:20;7.20;;;4.20;;
69970;SDS011;57301;50.328;8.542;2022-12-07T16:06:47;7.93;;;4.00;;
69970;SDS011;57301;50.328;8.542;2022-12-07T16:09:13;5.63;;;3.50;;
69970;SDS011;57301;50.328;8.542;2022-12-07T16:11:40;6.30;;;3.60;;
69970;SDS011;57301;50.328;8.542;2022-12-07T16:14:06;8.52;;;4.15;;
69970;SDS011;57301;50.328;8.542;2022-12-07T16:16:33;5.60;;;3.80;;
69970;SDS011;57301;50.328;8.542;2022-12-07T16:19:00;7.57;;;4.35;;
69970;SDS011;57301;50.328;8.542;2022-12-07T16:21:26;24.52;;;15.18;;
69970;SDS011;57301;50.328;8.542;2022-12-07T16:23:53;17.05;;;11.95;;
69970;SDS011;57301;50.328;8.542;2022-12-07T16:26:20;9.45;;;6.53;;
69970;SDS011;57301;50.328;8.542;2022-12-07T16:28:49;10.70;;;6.10;;
69970;SDS011;57301;50.328;8.542;2022-12-07T16:31:17;10.15;;;4.88;;
69970;SDS011;57301;50.328;8.542;2022-12-07T16:33:45;8.75;;;4.20;;
69970;SDS011;57301;50.328;8.542;2022-12-07T16:36:12;12.45;;;4.13;;
69970;SDS011;57301;50.328;8.542;2022-12-07T16:38:40;7.72;;;4.35;;